Time;durP1;ratioP1;P1;durP2;ratioP2;P2;SDS_P1;SDS_P2;PMS_P1;PMS_P2;Temp;Humidity;BMP_temperature;BMP_pressure;BME280_temperature;BME280_humidity;BME280_pressure;Samples;Min_cycle;Max_cycle;Signal;HPM_P1;HPM_P2
2023/10/22 00:00:46;;;;;;;6.28;3.63;;;;;;;12.26;100.00;99201.72;4972275;28;20501;-54
2023/10/22 00:03:11;;;;;;;7.55;3.58;;;;;;;12.35;100.00;99209.88;4988325;28;20117;-56
2023/10/22 00:05:36;;;;;;;5.13;3.63;;;;;;;11.90;100.00;99135.53;4973559;28;20105;-52
2023/10/22 00:08:02;;;;;;;6.18;3.20;;;;;;;12.00;100.00;99161.22;4973247;28;20122;-55
2023/10/22 00:10:27;;;;;;;6.72;3.30;;;;;;;12.43;100.00;99226.06;4988584;28;20114;-57
2023/10/22 00:12:53;;;;;;;6.50;3.03;;;;;;;12.11;100.00;99176.34;4973539;28;20039;-54
2023/10/22 00:15:20;;;;;;;7.40;3.10;;;;;;;12.44;100.00;99221.63;4991012;28;20065;-56
2023/10/22 00:17:45;;;;;;;5.75;3.00;;;;;;;12.03;100.00;99161.00;4974422;28;20042;-54
2023/10/22 00:20:11;;;;;;;7.63;3.13;;;;;;;12.39;100.00;99211.41;4992869;28;20034;-56
2023/10/22 00:22:36;;;;;;;4.32;3.10;;;;;;;12.04;100.00;99154.81;4992831;28;20034;-56
2023/10/22 00:25:02;;;;;;;5.47;2.75;;;;;;;12.06;100.00;99163.44;4992589;28;20027;-55
2023/10/22 00:27:27;;;;;;;7.57;3.05;;;;;;;12.16;100.00;99188.31;4992941;28;20402;-56
2023/10/22 00:29:52;;;;;;;6.63;3.08;;;;;;;11.81;100.00;99116.75;4992921;28;20038;-54
2023/10/22 00:32:18;;;;;;;6.38;2.95;;;;;;;12.45;100.00;99230.41;4992890;28;20386;-56
2023/10/22 00:34:43;;;;;;;5.40;3.08;;;;;;;12.18;100.00;99202.22;4962308;28;20449;-58
2023/10/22 00:37:09;;;;;;;4.07;2.78;;;;;;;12.50;100.00;99254.69;4971908;28;20035;-57
2023/10/22 00:39:35;;;;;;;8.75;2.60;;;;;;;12.40;100.00;99241.28;4973087;28;20046;-56
2023/10/22 00:42:00;;;;;;;6.75;3.00;;;;;;;12.39;100.00;99239.56;4988088;28;20038;-57
2023/10/22 00:44:26;;;;;;;3.70;2.83;;;;;;;12.51;100.00;99253.75;4992160;28;20042;-55
2023/10/22 00:46:51;;;;;;;5.35;3.17;;;;;;;12.46;100.00;99253.22;4992373;28;20030;-56
2023/10/22 00:49:17;;;;;;;5.28;3.10;;;;;;;12.52;100.00;99268.66;4992522;28;20490;-56
2023/10/22 00:51:43;;;;;;;5.13;2.92;;;;;;;12.55;100.00;99274.56;4975351;28;20034;-56
2023/10/22 00:54:10;;;;;;;6.47;2.80;;;;;;;12.20;100.00;99196.88;4974835;28;20067;-57
2023/10/22 00:56:35;;;;;;;4.43;2.60;;;;;;;12.63;100.00;99284.63;4975212;28;20041;-56
2023/10/22 00:59:01;;;;;;;5.97;2.67;;;;;;;12.22;100.00;99223.97;4974413;28;20042;-56
2023/10/22 01:01:27;;;;;;;4.05;2.83;;;;;;;12.64;100.00;99299.53;4991853;28;20474;-56
2023/10/22 01:03:53;;;;;;;5.78;3.03;;;;;;;12.33;100.00;99238.19;4991860;28;20037;-54
2023/10/22 01:06:19;;;;;;;5.10;2.60;;;;;;;12.69;100.00;99310.63;4975111;28;20031;-52
2023/10/22 01:08:45;;;;;;;5.97;2.65;;;;;;;12.37;100.00;99254.66;4992163;28;20398;-56
2023/10/22 01:11:11;;;;;;;5.03;2.67;;;;;;;12.71;100.00;99320.16;4994523;28;20043;-55
2023/10/22 01:13:37;;;;;;;6.32;2.58;;;;;;;12.62;100.00;99318.09;4996296;28;20073;-58
2023/10/22 01:16:03;;;;;;;4.78;2.20;;;;;;;12.68;100.00;99328.25;4994760;28;20069;-55
2023/10/22 01:18:29;;;;;;;6.95;2.58;;;;;;;12.33;100.00;99266.34;4978680;28;20066;-55
2023/10/22 01:20:54;;;;;;;6.75;2.60;;;;;;;12.75;100.00;99332.22;4995954;28;20062;-53
2023/10/22 01:23:20;;;;;;;6.35;2.75;;;;;;;12.72;100.00;99337.69;4995703;28;20470;-56
2023/10/22 01:25:45;;;;;;;5.13;2.53;;;;;;;12.71;100.00;99321.94;4996221;28;20367;-54
2023/10/22 01:28:11;;;;;;;8.15;2.80;;;;;;;12.68;100.00;99311.56;4996071;28;20042;-56
2023/10/22 01:30:36;;;;;;;5.18;2.50;;;;;;;12.66;100.00;99306.41;4993594;28;20425;-58
2023/10/22 01:33:01;;;;;;;4.90;2.30;;;;;;;12.56;100.00;99289.47;4995905;28;20041;-55
2023/10/22 01:35:27;;;;;;;8.00;2.60;;;;;;;12.51;100.00;99274.88;4995465;28;20121;-57
2023/10/22 01:37:53;;;;;;;7.78;2.75;;;;;;;12.76;100.00;99325.97;4995636;28;20193;-53
2023/10/22 01:40:19;;;;;;;5.10;2.58;;;;;;;12.98;100.00;99357.13;4995769;28;20030;-55
2023/10/22 01:42:45;;;;;;;6.10;2.67;;;;;;;12.93;100.00;99357.41;4995747;28;20034;-54
2023/10/22 01:45:11;;;;;;;6.80;2.60;;;;;;;13.04;100.00;99377.84;4978019;28;20069;-55
2023/10/22 01:47:36;;;;;;;4.68;2.40;;;;;;;12.68;100.00;99314.22;4994610;28;20474;-55
2023/10/22 01:50:04;;;;;;;8.00;2.55;;;;;;;12.69;100.00;99316.75;4995641;28;20041;-56
2023/10/22 01:52:30;;;;;;;5.53;2.78;;;;;;;12.76;100.00;99317.19;4995433;28;20033;-55
2023/10/22 01:54:55;;;;;;;4.30;2.83;;;;;;;12.76;100.00;99327.75;4995473;28;20034;-57
2023/10/22 01:57:20;;;;;;;15.02;2.63;;;;;;;12.76;100.00;99340.94;4995357;28;20062;-56
2023/10/22 01:59:46;;;;;;;5.32;1.85;;;;;;;12.82;100.00;99362.53;4995452;28;20031;-54
2023/10/22 02:02:11;;;;;;;10.07;2.08;;;;;;;12.78;100.00;99358.38;4994070;28;20155;-56
2023/10/22 02:04:37;;;;;;;9.90;1.90;;;;;;;12.85;100.00;99383.47;4995395;28;20062;-56
2023/10/22 02:07:02;;;;;;;5.53;1.45;;;;;;;12.74;100.00;99380.66;4995125;28;20039;-57
2023/10/22 02:09:27;;;;;;;8.30;1.90;;;;;;;12.80;100.00;99406.69;4995490;28;20034;-55
2023/10/22 02:11:53;;;;;;;5.07;1.55;;;;;;;12.59;100.00;99400.13;4995376;28;20531;-55
2023/10/22 02:14:19;;;;;;;8.93;1.80;;;;;;;12.75;100.00;99442.25;4993781;28;20031;-54
2023/10/22 02:16:44;;;;;;;11.60;2.10;;;;;;;12.61;100.00;99440.47;4995261;28;20394;-56
2023/10/22 02:19:09;;;;;;;4.93;1.73;;;;;;;12.91;100.00;99498.41;4973370;28;20102;-53
2023/10/22 02:21:35;;;;;;;4.68;1.52;;;;;;;12.86;100.00;99511.06;4975144;28;20042;-57
2023/10/22 02:24:00;;;;;;;7.03;1.70;;;;;;;12.81;100.00;99521.91;4975165;28;20050;-56
2023/10/22 02:26:26;;;;;;;9.07;1.80;;;;;;;12.44;100.00;99459.13;4975734;28;20439;-55
2023/10/22 02:28:51;;;;;;;6.95;1.92;;;;;;;12.74;100.00;99527.69;4975375;28;20501;-58
2023/10/22 02:31:17;;;;;;;7.32;1.67;;;;;;;12.73;100.00;99547.94;4975219;28;20114;-54
2023/10/22 02:33:42;;;;;;;7.53;1.83;;;;;;;12.29;100.00;99487.31;4975160;28;20038;-56
2023/10/22 02:36:07;;;;;;;12.15;2.13;;;;;;;11.54;100.00;99371.44;4990120;28;20081;-54
2023/10/22 02:38:35;;;;;;;8.77;2.00;;;;;;;12.66;100.00;99562.47;4994856;28;20061;-55
2023/10/22 02:41:02;;;;;;;6.20;2.20;;;;;;;12.52;100.00;99554.53;4994941;28;20038;-58
2023/10/22 02:43:27;;;;;;;10.88;3.33;;;;;;;12.67;100.00;99592.34;4994458;28;20035;-57
2023/10/22 02:45:55;;;;;;;12.02;5.03;;;;;;;12.20;100.00;99526.59;4994416;28;20478;-57
2023/10/22 02:48:21;;;;;;;8.23;3.78;;;;;;;12.14;100.00;99550.72;4977295;28;20033;-57
2023/10/22 02:50:46;;;;;;;6.78;4.55;;;;;;;12.27;100.00;99600.00;4993126;28;20034;-50
2023/10/22 02:53:12;;;;;;;9.68;4.20;;;;;;;12.17;100.00;99598.84;4991884;28;20034;-55
2023/10/22 02:55:37;;;;;;;9.82;4.50;;;;;;;12.23;100.00;99642.50;4994391;28;20042;-53
2023/10/22 02:58:03;;;;;;;10.63;3.85;;;;;;;12.15;100.00;99656.13;4994373;28;20034;-54
2023/10/22 03:00:28;;;;;;;5.65;3.97;;;;;;;11.94;100.00;99638.06;4994410;28;20041;-57
2023/10/22 03:02:53;;;;;;;9.45;4.07;;;;;;;11.98;100.00;99661.50;4993764;28;20177;-57
2023/10/22 03:05:19;;;;;;;7.82;3.63;;;;;;;11.90;100.00;99676.94;4994144;28;20034;-55
2023/10/22 03:07:44;;;;;;;7.68;3.20;;;;;;;11.65;100.00;99635.22;4994313;28;20034;-57
2023/10/22 03:10:10;;;;;;;5.63;2.65;;;;;;;11.41;100.00;99618.16;4972566;28;20378;-56
2023/10/22 03:12:36;;;;;;;5.50;2.08;;;;;;;11.77;100.00;99689.06;4957344;28;20039;-56
2023/10/22 03:15:02;;;;;;;6.32;2.40;;;;;;;11.72;100.00;99701.66;4974497;28;20050;-53
2023/10/22 03:17:28;;;;;;;7.35;2.53;;;;;;;11.67;100.00;99709.81;4957176;28;20047;-52
2023/10/22 03:19:54;;;;;;;3.33;2.00;;;;;;;11.15;100.00;99632.72;4957093;28;20445;-56
2023/10/22 03:22:19;;;;;;;5.13;1.98;;;;;;;11.64;100.00;99725.78;4940990;28;20047;-56
2023/10/22 03:24:53;;;;;;;6.65;1.80;;;;;;;11.28;100.00;99672.41;4974661;28;20442;-56
2023/10/22 03:27:19;;;;;;;9.63;2.15;;;;;;;10.99;100.00;99633.63;4989887;28;20045;-54
2023/10/22 03:29:44;;;;;;;6.70;1.75;;;;;;;11.48;100.00;99724.03;4992299;28;20034;-56
2023/10/22 03:32:10;;;;;;;9.15;2.65;;;;;;;11.56;100.00;99754.31;4993468;28;20038;-57
2023/10/22 03:34:36;;;;;;;5.88;1.38;;;;;;;11.55;100.00;99749.16;4992618;28;20077;-52
2023/10/22 03:37:04;;;;;;;7.05;1.88;;;;;;;11.10;100.00;99689.19;4993741;28;20042;-56
2023/10/22 03:39:30;;;;;;;4.82;1.40;;;;;;;11.19;100.00;99712.41;4993382;28;20038;-54
2023/10/22 03:41:55;;;;;;;5.45;1.63;;;;;;;11.28;100.00;99756.72;4993551;28;20042;-56
2023/10/22 03:44:21;;;;;;;4.75;1.90;;;;;;;11.34;100.00;99751.13;4992698;28;20046;-57
2023/10/22 03:46:46;;;;;;;5.15;1.40;;;;;;;11.44;100.00;99777.84;4993459;28;20617;-57
2023/10/22 03:49:12;;;;;;;7.28;1.75;;;;;;;11.04;100.00;99716.69;4993066;28;20161;-55
2023/10/22 03:51:37;;;;;;;4.60;1.40;;;;;;;11.08;100.00;99728.78;4993700;28;20039;-56
2023/10/22 03:54:03;;;;;;;4.88;1.23;;;;;;;11.46;100.00;99794.44;4993240;28;20437;-56
2023/10/22 03:56:28;;;;;;;3.20;1.65;;;;;;;11.02;100.00;99723.84;4993354;28;20046;-55
2023/10/22 03:58:54;;;;;;;3.55;1.38;;;;;;;11.10;100.00;99739.22;4990529;28;20073;-54
2023/10/22 04:01:19;;;;;;;5.93;1.73;;;;;;;11.05;100.00;99746.53;4993145;28;20034;-57
2023/10/22 04:03:44;;;;;;;6.35;1.30;;;;;;;11.07;100.00;99752.56;4993119;28;20045;-54
2023/10/22 04:06:10;;;;;;;5.85;1.65;;;;;;;11.48;100.00;99822.41;4993118;28;20043;-57
2023/10/22 04:08:35;;;;;;;4.57;1.30;;;;;;;11.07;100.00;99761.31;4992852;28;20038;-56
2023/10/22 04:11:01;;;;;;;4.47;1.67;;;;;;;11.11;100.00;99776.03;4993032;28;20065;-53
2023/10/22 04:13:27;;;;;;;6.53;1.73;;;;;;;11.10;100.00;99779.59;4993210;28;20061;-54
2023/10/22 04:15:52;;;;;;;5.00;1.58;;;;;;;11.46;100.00;99852.41;4991771;28;20538;-52
2023/10/22 04:18:20;;;;;;;7.35;1.83;;;;;;;11.42;100.00;99856.09;4975236;28;20045;-55
2023/10/22 04:20:46;;;;;;;6.97;1.90;;;;;;;10.86;100.00;99761.56;4993163;28;20045;-56
2023/10/22 04:23:11;;;;;;;4.53;1.60;;;;;;;11.03;100.00;99780.00;4991814;28;20030;-53
2023/10/22 04:25:40;;;;;;;6.00;1.67;;;;;;;11.43;100.00;99871.00;4992878;28;20045;-54
2023/10/22 04:28:06;;;;;;;7.00;1.60;;;;;;;11.49;100.00;99868.91;4992693;28;20367;-51
2023/10/22 04:30:33;;;;;;;3.72;1.33;;;;;;;10.98;100.00;99789.88;4975228;28;20112;-56
2023/10/22 04:32:58;;;;;;;2.38;1.17;;;;;;;11.52;100.00;99884.56;4991826;28;20045;-56
2023/10/22 04:35:23;;;;;;;3.33;1.30;;;;;;;11.53;100.00;99882.78;4992929;28;20449;-51
2023/10/22 04:37:53;;;;;;;4.00;1.90;;;;;;;11.44;100.00;99885.88;4992812;28;20042;-57
2023/10/22 04:40:18;;;;;;;3.30;1.00;;;;;;;11.41;100.00;99880.78;4992461;28;20497;-55
2023/10/22 04:42:44;;;;;;;5.30;1.13;;;;;;;11.43;100.00;99878.91;4992824;28;20046;-51
2023/10/22 04:45:10;;;;;;;3.42;1.00;;;;;;;11.17;100.00;99854.75;4992852;28;20042;-50
2023/10/22 04:47:35;;;;;;;6.13;1.48;;;;;;;11.58;100.00;99904.47;4996448;28;20041;-51
2023/10/22 04:50:00;;;;;;;2.60;1.48;;;;;;;11.59;100.00;99927.25;4995819;28;20490;-57
2023/10/22 04:52:33;;;;;;;6.90;1.30;;;;;;;11.59;100.00;99920.19;4996908;28;20042;-52
2023/10/22 04:54:59;;;;;;;3.80;0.98;;;;;;;11.59;100.00;99922.84;4996628;28;20034;-54
2023/10/22 04:57:24;;;;;;;4.97;1.10;;;;;;;11.64;100.00;99928.75;4996417;28;20044;-51
2023/10/22 04:59:50;;;;;;;3.97;1.55;;;;;;;11.66;100.00;99926.03;4996256;28;20049;-55
2023/10/22 05:02:15;;;;;;;3.53;0.90;;;;;;;11.64;100.00;99933.16;4996391;28;20069;-56
2023/10/22 05:04:41;;;;;;;5.65;1.17;;;;;;;11.38;100.00;99896.75;4992089;28;20088;-53
2023/10/22 05:07:06;;;;;;;6.68;1.40;;;;;;;11.64;100.00;99927.91;4993208;28;20250;-57
2023/10/22 05:09:33;;;;;;;6.90;1.33;;;;;;;11.58;100.00;99926.44;4995663;28;20393;-54
2023/10/22 05:11:59;;;;;;;2.80;1.10;;;;;;;11.65;100.00;99938.34;4995211;28;20081;-54
2023/10/22 05:14:24;;;;;;;5.30;1.02;;;;;;;11.53;100.00;99930.22;4975821;28;20508;-53
2023/10/22 05:16:52;;;;;;;5.43;1.02;;;;;;;11.12;100.00;99882.25;4994821;28;20058;-57
2023/10/22 05:19:17;;;;;;;3.67;1.15;;;;;;;11.60;100.00;99966.72;4995304;28;20034;-56
2023/10/22 05:21:42;;;;;;;2.22;0.98;;;;;;;11.15;100.00;99879.44;4978991;28;20061;-58
2023/10/22 05:24:09;;;;;;;3.05;1.23;;;;;;;11.58;100.00;99955.41;4995055;28;20046;-55
2023/10/22 05:26:35;;;;;;;4.03;1.20;;;;;;;11.25;100.00;99917.56;4995501;28;20069;-55
2023/10/22 05:29:00;;;;;;;2.95;0.90;;;;;;;11.48;100.00;99971.75;4995938;28;20058;-54
2023/10/22 05:31:25;;;;;;;3.80;0.93;;;;;;;11.44;100.00;99983.38;4994932;28;20043;-54
2023/10/22 05:33:51;;;;;;;3.00;0.80;;;;;;;11.37;100.00;99982.84;4993910;28;20053;-55
2023/10/22 05:36:20;;;;;;;4.18;1.30;;;;;;;10.95;100.00;99922.53;4984020;28;20121;-58
2023/10/22 05:38:47;;;;;;;3.67;1.17;;;;;;;11.40;100.00;100003.75;4991331;28;20030;-54
2023/10/22 05:41:23;;;;;;;2.30;0.80;;;;;;;11.42;100.00;100006.31;4995592;28;20030;-53
2023/10/22 05:43:51;;;;;;;3.97;1.25;;;;;;;11.44;100.00;100007.94;4977745;28;20039;-54
2023/10/22 05:46:17;;;;;;;2.70;1.05;;;;;;;11.34;100.00;100005.84;4994472;28;20042;-57
2023/10/22 05:48:42;;;;;;;3.95;1.00;;;;;;;11.44;100.00;100020.28;4995868;28;20046;-54
2023/10/22 05:51:07;;;;;;;2.78;0.60;;;;;;;11.42;100.00;100022.97;4975383;28;20101;-58
2023/10/22 05:53:33;;;;;;;3.75;0.70;;;;;;;11.45;100.00;100028.09;4976008;28;20047;-52
2023/10/22 05:55:59;;;;;;;4.32;1.20;;;;;;;11.50;100.00;100031.34;4995398;28;20046;-57
2023/10/22 05:58:25;;;;;;;3.20;1.10;;;;;;;11.49;100.00;100045.47;4993487;28;20046;-55
2023/10/22 06:00:51;;;;;;;6.35;1.33;;;;;;;11.56;100.00;100053.91;4994627;28;20077;-52
2023/10/22 06:03:16;;;;;;;6.00;0.88;;;;;;;11.51;100.00;100054.16;4977745;28;20034;-53
2023/10/22 06:05:41;;;;;;;5.28;1.30;;;;;;;11.55;100.00;100065.41;4993855;28;20124;-53
2023/10/22 06:08:07;;;;;;;3.38;1.10;;;;;;;11.10;100.00;99995.56;4995025;28;20124;-57
2023/10/22 06:10:39;;;;;;;3.28;1.10;;;;;;;11.48;100.00;100070.13;4960407;28;20037;-57
2023/10/22 06:13:04;;;;;;;1.90;1.05;;;;;;;11.35;100.00;100057.63;4993701;28;20034;-54
2023/10/22 06:15:30;;;;;;;4.15;1.40;;;;;;;11.38;100.00;100076.78;4994681;28;20089;-49
2023/10/22 06:17:55;;;;;;;3.38;1.45;;;;;;;11.29;100.00;100080.66;4977744;28;20038;-55
2023/10/22 06:20:21;;;;;;;3.22;1.25;;;;;;;11.22;100.00;100089.81;4994980;28;20070;-52
2023/10/22 06:22:46;;;;;;;6.20;1.50;;;;;;;11.01;100.00;100087.28;4977458;28;20038;-54
2023/10/22 06:25:11;;;;;;;4.32;1.40;;;;;;;10.90;100.00;100087.78;4993647;28;20067;-55
2023/10/22 06:27:37;;;;;;;3.70;1.88;;;;;;;10.77;100.00;100105.06;4995008;28;20060;-55
2023/10/22 06:30:02;;;;;;;4.50;1.92;;;;;;;10.56;100.00;100075.31;4992732;28;20037;-56
2023/10/22 06:32:28;;;;;;;6.45;2.45;;;;;;;10.31;100.00;100045.72;4993518;28;20585;-55
2023/10/22 06:34:53;;;;;;;4.40;1.88;;;;;;;10.18;100.00;100041.94;4994612;28;20038;-53
2023/10/22 06:37:18;;;;;;;5.00;2.10;;;;;;;10.51;100.00;100110.63;4993696;28;20030;-53
2023/10/22 06:39:44;;;;;;;7.72;2.45;;;;;;;10.04;100.00;100042.47;4994925;28;20046;-57
2023/10/22 06:42:10;;;;;;;6.47;2.53;;;;;;;10.41;100.00;100125.97;4994547;28;20121;-55
2023/10/22 06:44:36;;;;;;;7.90;2.75;;;;;;;10.43;100.00;100139.91;4976657;28;20121;-56
2023/10/22 06:47:02;;;;;;;9.95;3.15;;;;;;;10.10;100.00;100062.38;4994472;28;20546;-52
2023/10/22 06:49:27;;;;;;;4.85;3.03;;;;;;;10.44;100.00;100122.34;4975173;28;20117;-56
2023/10/22 06:51:53;;;;;;;5.40;3.00;;;;;;;10.49;100.00;100137.00;4993538;28;20030;-55
2023/10/22 06:54:19;;;;;;;4.80;3.35;;;;;;;10.45;100.00;100143.31;4993242;28;20042;-55
2023/10/22 06:56:44;;;;;;;9.00;3.40;;;;;;;10.41;100.00;100149.66;4993144;28;20037;-54
2023/10/22 06:59:09;;;;;;;7.68;3.70;;;;;;;10.47;100.00;100152.00;4994150;28;20081;-57
2023/10/22 07:01:35;;;;;;;8.25;3.45;;;;;;;10.56;100.00;100150.75;4991908;28;20042;-53
2023/10/22 07:04:00;;;;;;;7.20;3.35;;;;;;;10.63;100.00;100158.31;4994164;28;20208;-52
2023/10/22 07:06:25;;;;;;;4.55;2.88;;;;;;;10.67;100.00;100166.94;4994193;28;20054;-56
2023/10/22 07:08:51;;;;;;;5.05;3.17;;;;;;;10.70;100.00;100165.03;4993618;28;20117;-57
2023/10/22 07:11:16;;;;;;;4.13;3.05;;;;;;;10.78;100.00;100184.88;4993668;28;20281;-52
2023/10/22 07:13:41;;;;;;;4.63;2.53;;;;;;;10.66;100.00;100158.19;4993377;28;20046;-55
2023/10/22 07:16:07;;;;;;;5.35;3.08;;;;;;;10.40;100.00;100111.09;4993934;28;20065;-54
2023/10/22 07:18:33;;;;;;;7.47;3.03;;;;;;;10.80;100.00;100181.25;4992904;28;20042;-52
2023/10/22 07:21:00;;;;;;;6.75;3.13;;;;;;;10.46;100.00;100125.75;4993577;28;20510;-56
2023/10/22 07:23:25;;;;;;;9.88;3.17;;;;;;;10.90;100.00;100201.00;4992599;28;20045;-54
2023/10/22 07:25:56;;;;;;;5.70;3.30;;;;;;;10.76;100.00;100152.53;4992821;28;20133;-56
2023/10/22 07:28:21;;;;;;;6.30;3.30;;;;;;;11.21;100.00;100187.31;4993690;28;20089;-53
2023/10/22 07:30:49;;;;;;;9.55;4.00;;;;;;;11.31;100.00;100188.63;4993738;28;20034;-56
2023/10/22 07:33:18;;;;;;;4.32;3.20;;;;;;;11.57;100.00;100208.50;4994027;28;20073;-53
2023/10/22 07:35:57;;;;;;;4.82;2.90;;;;;;;11.74;100.00;100214.75;4992439;28;20046;-53
2023/10/22 07:38:24;;;;;;;6.63;3.25;;;;;;;11.81;100.00;100212.69;4993088;28;20042;-54
2023/10/22 07:40:54;;;;;;;6.00;2.75;;;;;;;11.94;100.00;100218.25;4976222;28;20053;-55
2023/10/22 07:43:19;;;;;;;8.57;2.90;;;;;;;11.92;100.00;100223.56;4993430;28;20038;-56
2023/10/22 07:45:45;;;;;;;6.53;3.03;;;;;;;11.64;100.00;100163.38;4973195;28;20096;-55
2023/10/22 07:48:11;;;;;;;7.13;3.35;;;;;;;11.59;100.00;100148.66;4991121;28;20042;-56
2023/10/22 07:50:36;;;;;;;6.38;3.35;;;;;;;11.99;100.00;100224.13;4991922;28;20092;-56
2023/10/22 07:53:02;;;;;;;3.28;2.63;;;;;;;11.84;100.00;100208.13;4992394;28;20046;-55
2023/10/22 07:55:27;;;;;;;7.97;2.70;;;;;;;11.71;100.00;100187.66;4991006;28;20034;-55
2023/10/22 07:57:54;;;;;;;5.78;2.83;;;;;;;12.11;100.00;100250.75;4992307;28;21192;-53
2023/10/22 08:00:19;;;;;;;7.72;2.60;;;;;;;12.21;100.00;100254.69;4993082;28;20076;-52
2023/10/22 08:02:44;;;;;;;6.22;3.08;;;;;;;12.15;100.00;100265.53;4989392;28;20066;-54
2023/10/22 08:05:10;;;;;;;5.00;2.90;;;;;;;11.79;100.00;100202.19;4973742;28;20101;-54
2023/10/22 08:07:35;;;;;;;9.38;3.35;;;;;;;12.10;100.00;100271.97;4973501;28;20035;-54
2023/10/22 08:10:01;;;;;;;8.48;2.80;;;;;;;12.02;100.00;100268.84;4988249;28;20046;-55
2023/10/22 08:12:26;;;;;;;9.88;3.83;;;;;;;12.10;100.00;100288.66;4993107;28;20034;-55
2023/10/22 08:14:55;;;;;;;5.80;2.65;;;;;;;12.13;100.00;100283.22;4992695;28;20046;-52
2023/10/22 08:17:20;;;;;;;7.10;3.00;;;;;;;12.02;100.00;100280.25;4971195;28;20051;-55
2023/10/22 08:19:45;;;;;;;3.88;3.10;;;;;;;11.72;100.00;100218.38;4968009;28;20109;-53
2023/10/22 08:22:11;;;;;;;4.30;2.85;;;;;;;12.10;100.00;100290.44;4964229;28;20035;-49
2023/10/22 08:24:36;;;;;;;6.88;3.10;;;;;;;12.09;100.00;100294.84;4969350;28;20047;-58
2023/10/22 08:27:02;;;;;;;5.28;3.50;;;;;;;11.71;100.00;100235.97;4960728;28;20035;-54
2023/10/22 08:29:27;;;;;;;4.53;3.00;;;;;;;11.67;100.00;100223.00;4972310;28;20090;-51
2023/10/22 08:31:53;;;;;;;4.97;2.78;;;;;;;12.04;100.00;100296.84;4985347;28;20026;-54
2023/10/22 08:34:19;;;;;;;5.22;2.88;;;;;;;12.05;100.00;100290.66;4970876;28;20175;-51
2023/10/22 08:36:44;;;;;;;5.57;2.38;;;;;;;12.10;100.00;100316.81;4969335;28;20039;-52
2023/10/22 08:39:10;;;;;;;3.80;2.25;;;;;;;11.99;100.00;100293.59;4972087;28;20039;-53
2023/10/22 08:41:44;;;;;;;5.13;2.42;;;;;;;12.18;100.00;100312.03;4986179;28;20039;-56
2023/10/22 08:44:10;;;;;;;6.40;2.17;;;;;;;12.20;100.00;100307.56;4982246;28;20411;-53
2023/10/22 08:46:35;;;;;;;5.78;2.38;;;;;;;12.24;100.00;100309.97;4962034;28;20125;-56
2023/10/22 08:49:05;;;;;;;6.25;2.70;;;;;;;11.92;100.00;100257.84;4985482;28;20108;-51
2023/10/22 08:51:30;;;;;;;3.80;2.30;;;;;;;12.38;100.00;100333.91;4963583;28;20043;-56
2023/10/22 08:53:56;;;;;;;7.55;2.40;;;;;;;12.16;100.00;100269.03;4969627;28;20448;-55
2023/10/22 08:56:21;;;;;;;4.22;2.15;;;;;;;12.71;100.00;100346.41;4970928;28;20089;-56
2023/10/22 08:58:46;;;;;;;4.78;2.13;;;;;;;12.40;100.00;100275.78;4971277;28;20496;-52
2023/10/22 09:01:12;;;;;;;3.55;2.22;;;;;;;12.76;100.00;100334.69;4970368;28;20457;-53
2023/10/22 09:03:37;;;;;;;3.65;1.98;;;;;;;12.77;100.00;100343.47;4970542;28;20410;-52
2023/10/22 09:06:05;;;;;;;2.95;1.98;;;;;;;12.84;100.00;100356.28;4986336;28;20038;-55
2023/10/22 09:08:45;;;;;;;6.47;1.77;;;;;;;12.35;100.00;100283.03;4945697;28;20035;-53
2023/10/22 09:11:15;;;;;;;5.22;2.50;;;;;;;12.86;100.00;100375.56;4953956;28;20043;-56
2023/10/22 09:13:40;;;;;;;2.97;2.30;;;;;;;12.75;100.00;100359.41;4969204;28;20430;-55
2023/10/22 09:16:07;;;;;;;3.63;2.10;;;;;;;12.42;100.00;100308.22;4975905;28;20050;-55
2023/10/22 09:18:32;;;;;;;5.82;2.55;;;;;;;12.79;100.00;100358.31;4990015;28;20041;-54
2023/10/22 09:21:07;;;;;;;3.70;2.08;;;;;;;12.69;100.00;100351.78;4990271;28;20410;-58
2023/10/22 09:23:32;;;;;;;4.45;2.20;;;;;;;12.85;100.00;100381.78;4989247;28;20033;-56
2023/10/22 09:25:58;;;;;;;5.43;2.03;;;;;;;12.80;100.00;100383.78;4991830;28;20038;-52
2023/10/22 09:28:25;;;;;;;3.85;2.35;;;;;;;12.75;100.00;100379.66;4992501;28;20030;-53
2023/10/22 09:30:56;;;;;;;7.78;2.20;;;;;;;12.51;100.00;100354.44;4991293;28;20065;-55
2023/10/22 09:33:31;;;;;;;4.63;1.85;;;;;;;12.33;100.00;100328.00;4994734;28;20042;-52
2023/10/22 09:35:59;;;;;;;4.28;2.00;;;;;;;12.67;100.00;100385.31;4995759;28;20034;-53
2023/10/22 09:38:48;;;;;;;2.92;1.77;;;;;;;12.68;100.00;100400.22;4995861;28;20062;-56
2023/10/22 09:41:27;;;;;;;4.00;1.90;;;;;;;12.17;100.00;100311.16;4984570;28;20082;-54
2023/10/22 09:43:53;;;;;;;9.85;1.73;;;;;;;12.43;100.00;100340.75;4978373;28;20393;-54
2023/10/22 09:46:19;;;;;;;3.08;1.88;;;;;;;12.90;100.00;100394.78;4978128;28;20045;-51
2023/10/22 09:48:48;;;;;;;4.93;2.00;;;;;;;12.71;100.00;100326.13;4978276;28;20042;-55
2023/10/22 09:51:15;;;;;;;4.32;1.83;;;;;;;13.43;100.00;100398.25;4992611;28;20030;-54
2023/10/22 09:53:54;;;;;;;4.32;1.50;;;;;;;13.75;100.00;100401.88;4993707;28;20042;-53
2023/10/22 09:56:20;;;;;;;4.63;1.45;;;;;;;13.99;100.00;100397.94;4995237;28;20073;-51
2023/10/22 09:58:48;;;;;;;2.70;1.33;;;;;;;13.92;100.00;100348.09;4972494;28;20595;-52
2023/10/22 10:01:14;;;;;;;5.07;1.70;;;;;;;14.06;100.00;100349.06;4982272;28;20034;-56
2023/10/22 10:03:40;;;;;;;3.78;2.13;;;;;;;14.60;100.00;100413.16;4994847;28;20046;-57
2023/10/22 10:06:07;;;;;;;3.90;1.33;;;;;;;14.41;100.00;100352.44;4994052;28;20081;-55
2023/10/22 10:08:37;;;;;;;3.28;1.27;;;;;;;14.46;100.00;100382.16;4994541;28;20121;-54
2023/10/22 10:11:08;;;;;;;3.10;1.05;;;;;;;14.94;100.00;100438.66;4992301;28;20030;-50
2023/10/22 10:13:35;;;;;;;3.42;1.30;;;;;;;15.09;100.00;100427.19;4995098;28;20466;-51
2023/10/22 10:16:02;;;;;;;3.30;1.30;;;;;;;14.77;100.00;100377.81;4991897;28;20063;-54
2023/10/22 10:19:08;;;;;;;5.07;1.30;;;;;;;14.91;100.00;100454.72;4993912;28;20162;-55
2023/10/22 10:21:39;;;;;;;3.55;1.30;;;;;;;14.54;100.00;100432.91;4994496;28;20030;-52
2023/10/22 10:24:34;;;;;;;3.45;1.52;;;;;;;14.38;100.00;100463.81;4995000;28;20113;-56
2023/10/22 10:26:59;;;;;;;1.73;1.20;;;;;;;14.23;100.00;100459.31;4972864;28;20486;-56
2023/10/22 10:29:32;;;;;;;2.83;1.33;;;;;;;14.14;100.00;100459.81;4994899;28;20077;-54
2023/10/22 10:32:13;;;;;;;4.03;1.25;;;;;;;14.32;100.00;100458.88;4989740;28;20038;-53
2023/10/22 10:34:40;;;;;;;3.25;1.10;;;;;;;14.43;100.00;100453.84;4984769;28;20046;-51
2023/10/22 10:37:12;;;;;;;3.63;1.30;;;;;;;14.47;100.00;100478.38;4977170;28;20042;-55
2023/10/22 10:39:38;;;;;;;7.75;1.38;;;;;;;14.17;100.00;100405.84;4967878;28;20039;-54
2023/10/22 10:42:04;;;;;;;2.85;1.30;;;;;;;14.52;100.00;100469.22;4992784;28;20084;-52
2023/10/22 10:44:29;;;;;;;3.22;1.00;;;;;;;14.55;100.00;100474.34;4975998;28;20125;-55
2023/10/22 10:47:21;;;;;;;4.28;1.30;;;;;;;14.56;100.00;100481.34;4976500;28;20431;-56
2023/10/22 10:50:05;;;;;;;4.68;1.30;;;;;;;14.34;100.00;100425.19;4993689;28;20026;-54
2023/10/22 10:52:56;;;;;;;2.30;1.20;;;;;;;14.90;100.00;100488.31;4994045;28;20030;-53
2023/10/22 10:55:21;;;;;;;2.92;1.23;;;;;;;14.97;100.00;100492.31;4980285;28;20051;-55
2023/10/22 10:57:49;;;;;;;1.98;1.05;;;;;;;14.86;100.00;100491.19;4994220;28;20137;-57
2023/10/22 11:00:20;;;;;;;4.60;1.73;;;;;;;14.35;100.00;100431.34;4993721;28;20072;-54
2023/10/22 11:02:47;;;;;;;4.93;1.20;;;;;;;14.51;100.00;100494.00;4992840;28;20038;-50
2023/10/22 11:05:13;;;;;;;5.82;1.10;;;;;;;14.04;100.00;100448.84;4994037;28;20050;-55
2023/10/22 11:07:40;;;;;;;3.75;1.27;;;;;;;14.22;100.00;100501.72;4993987;28;20034;-53
2023/10/22 11:10:08;;;;;;;3.95;1.60;;;;;;;14.19;100.00;100502.75;4994498;28;20034;-56
2023/10/22 11:12:34;;;;;;;5.10;1.33;;;;;;;13.89;100.00;100435.56;4993972;28;20113;-55
2023/10/22 11:14:59;;;;;;;2.72;1.33;;;;;;;13.97;100.00;100428.94;4992536;28;20126;-51
2023/10/22 11:17:26;;;;;;;4.63;1.23;;;;;;;14.68;100.00;100492.25;4993551;28;20090;-51
2023/10/22 11:19:51;;;;;;;3.00;2.15;;;;;;;15.09;100.00;100496.94;4993979;28;20041;-54